Flight Track Log - Related Links

Times and Time Zones

All times are in EDT time to prevent confusion due to time zone crossing. See the EGF9806 flight status page for this flight to view local times or setup timezone preferences in your user account.

Time Position Orientation Groundspeed Altitude Reporting Facility
EDT Latitude Longitude Course Direction KTS MPH feet Rate Location/Type
Wed 09:32:15 PM 32.4347 -99.7911 174° South  Level FlightAware
Wed 09:33:22 PM 32.3081 -99.7756 291° West 192 221 8,600  Level Fort Center
Wed 09:34:22 PM 32.3317 -99.8475 292° West 189 217 11,800 2,100 Climbing Fort Center
Wed 09:35:22 PM 32.3533 -99.9119 291° West 210 242 12,800 1,950 Climbing Fort Center
Wed 09:36:22 PM 32.3769 -99.9839 291° West 229 264 15,700 2,400 Climbing Fort Center
Wed 09:37:22 PM 32.4006 -100.0561 291° West 229 264 17,600 2,100 Climbing Fort Center
Wed 09:38:22 PM 32.4261 -100.1331 290° West 240 276 19,900 1,200 Climbing Fort Center
Wed 09:39:22 PM 32.4533 -100.2225 272° West 263 303 20,000 50 Climbing Fort Center
Wed 09:40:22 PM 32.4567 -100.3408 265° West 324 373 20,000  Level Fort Center
Wed 09:41:22 PM 32.4475 -100.4683 262° West 357 411 20,000  Level Fort Center
Wed 09:42:22 PM 32.4342 -100.5811 160° South 368 423 20,000  Level Fort Center
Wed 09:43:22 PM 32.3578 -100.5489 96° East 225 259 20,000 -150 Level Fort Center
Wed 09:44:22 PM 32.3464 -100.4208 94° East 197 227 19,700 -1,700 Descending Fort Center
Wed 09:45:22 PM 32.3389 -100.2950 95° East 296 341 16,600 -2,750 Descending Fort Center
Wed 09:46:22 PM 32.3292 -100.1719 108° East 337 388 14,200 -2,150 Descending Fort Center
Wed 09:47:22 PM 32.3000 -100.0653 113° Southeast 348 400 12,300 -1,850 Descending Fort Center
Wed 09:48:22 PM 32.2644 -99.9683 117° Southeast 340 391 10,500 -1,800 Descending Fort Center
Wed 09:49:22 PM 32.2267 -99.8814 110° East 311 358 8,700 -1,900 Descending Fort Center
Wed 09:50:22 PM 32.2011 -99.7972 90° East 288 331 6,700 -1,900 Descending Fort Center
Wed 09:51:22 PM 32.2008 -99.7039 32° Northeast 275 316 4,900 -1,300 Descending Fort Center
Wed 09:52:22 PM 32.2517 -99.6658 352° North 240 276 4,100 -600 Descending Fort Center
Wed 09:53:22 PM 32.3078 -99.6747 359° North 155 178 3,700 -850 Descending Fort Center
Wed 09:54:22 PM 32.3619 -99.6761 North 174 200 2,400 -500 Descending Fort Center
Wed 09:55:22 PM 32.4164 -99.6700 93° East 185 213 2,700 800 Climbing Fort Center
Wed 09:56:22 PM 32.4133 -99.6108 131° Southeast 145 167 4,000 650 Climbing Fort Center
Wed 09:57:22 PM 32.3744 -99.5583 177° South 133 153 4,000  Level Fort Center
Wed 09:58:22 PM 32.3203 -99.5547 177° South 146 168 4,000  Level Fort Center
Wed 09:59:22 PM 32.2639 -99.5508 177° South 178 205 4,000  Level Fort Center

Login

Don't have an account? Register now (free) for customized features, flight alerts, and more!